Time;durP1;ratioP1;P1;durP2;ratioP2;P2;SDS_P1;SDS_P2;PMS_P1;PMS_P2;Temp;Humidity;BMP_temperature;BMP_pressure;BME280_temperature;BME280_humidity;BME280_pressure;Samples;Min_cycle;Max_cycle;Signal;HPM_P1;HPM_P2
2022/12/13 00:07:27;;;;;;;18.80;10.20;;;;;;;12.61;51.69;99549.09;31357119;28;20103;-76
2022/12/13 00:22:29;;;;;;;18.73;8.83;;;;;;;12.63;51.51;99565.75;31366163;28;20773;-76
2022/12/13 00:37:31;;;;;;;20.50;8.67;;;;;;;12.88;51.27;99578.47;31355580;28;20380;-76
2022/12/13 00:52:33;;;;;;;19.87;9.93;;;;;;;12.81;50.79;99578.72;31356815;28;20053;-76
2022/12/13 01:07:37;;;;;;;19.43;8.83;;;;;;;12.97;51.52;99582.00;31337404;28;20060;-76
2022/12/13 01:22:38;;;;;;;16.57;8.93;;;;;;;12.76;51.84;99573.84;31324480;28;20072;-76
2022/12/13 01:37:41;;;;;;;17.50;8.73;;;;;;;12.68;52.62;99553.53;31351781;28;20056;-75
2022/12/13 01:52:46;;;;;;;20.83;8.77;;;;;;;12.61;51.48;99552.59;31341196;28;20053;-75
2022/12/13 02:07:50;;;;;;;19.27;8.90;;;;;;;12.66;51.89;99542.34;31347101;28;20053;-76
2022/12/13 02:23:05;;;;;;;24.53;9.43;;;;;;;12.52;51.90;99547.06;31327357;28;20056;-75
2022/12/13 02:38:23;;;;;;;16.70;8.63;;;;;;;12.62;51.58;99556.84;31359083;28;20150;-76
2022/12/13 02:53:26;;;;;;;21.63;9.43;;;;;;;12.46;52.05;99576.09;31347105;28;20106;-75
2022/12/13 03:08:41;;;;;;;45.17;20.40;;;;;;;12.49;51.54;99555.41;31332285;28;20053;-77
2022/12/13 03:23:45;;;;;;;29.23;12.17;;;;;;;12.40;51.18;99572.41;31330214;28;20053;-76
2022/12/13 03:38:49;;;;;;;24.50;10.37;;;;;;;12.39;51.96;99549.13;31324862;28;20052;-76
2022/12/13 03:53:51;;;;;;;19.67;9.63;;;;;;;12.68;51.23;99515.41;31337961;28;20076;-76
2022/12/13 04:08:53;;;;;;;23.37;10.17;;;;;;;12.51;50.51;99496.59;31337740;28;20076;-77
2022/12/13 04:23:55;;;;;;;16.63;9.17;;;;;;;12.51;50.77;99461.19;31342842;28;20106;-76
2022/12/13 04:39:03;;;;;;;19.43;9.83;;;;;;;12.58;50.93;99417.34;31347330;28;20564;-76
2022/12/13 04:54:22;;;;;;;23.80;10.77;;;;;;;12.45;51.71;99394.16;31363081;28;20041;-78
2022/12/13 05:09:25;;;;;;;25.70;11.53;;;;;;;12.52;51.87;99383.72;31347336;28;20085;-77
2022/12/13 05:24:27;;;;;;;30.90;12.77;;;;;;;12.57;50.65;99385.13;31357714;28;20067;-76
2022/12/13 05:39:29;;;;;;;36.43;14.33;;;;;;;12.96;50.97;99405.38;31341649;28;20060;-76
2022/12/13 05:54:31;;;;;;;34.80;15.80;;;;;;;12.44;52.38;99415.19;31355176;28;20045;-78
2022/12/13 06:09:33;;;;;;;29.47;14.43;;;;;;;12.75;52.21;99433.47;31350498;28;20045;-75
2022/12/13 06:24:40;;;;;;;27.17;13.57;;;;;;;13.11;50.46;99408.25;31330008;28;20115;-74
2022/12/13 06:39:43;;;;;;;32.87;14.67;;;;;;;13.17;50.71;99390.91;31353411;28;20057;-75
2022/12/13 06:54:45;;;;;;;35.60;17.37;;;;;;;12.82;50.37;99382.16;31364828;28;20092;-75
2022/12/13 07:09:47;;;;;;;31.17;15.23;;;;;;;13.08;51.57;99382.66;31356764;28;20073;-75
2022/12/13 07:24:49;;;;;;;35.47;13.53;;;;;;;12.99;52.84;99349.97;31357519;28;20174;-78
2022/12/13 07:39:51;;;;;;;28.47;11.17;;;;;;;12.83;52.20;99374.75;31317847;28;20053;-75
2022/12/13 07:54:56;;;;;;;43.53;20.10;;;;;;;12.62;54.19;99341.72;31344849;28;20049;-75
2022/12/13 08:09:58;;;;;;;20.90;7.97;;;;;;;12.87;52.23;99304.56;31340954;28;20057;-79
2022/12/13 08:25:01;;;;;;;22.97;9.97;;;;;;;13.43;53.87;99285.03;31351946;28;20049;-77
2022/12/13 08:40:05;;;;;;;26.13;8.93;;;;;;;13.56;52.92;99268.50;31318087;28;20103;-78
2022/12/13 08:55:12;;;;;;;27.03;9.20;;;;;;;13.83;52.93;99230.22;31326999;28;20060;-77
2022/12/13 09:10:14;;;;;;;28.40;10.00;;;;;;;14.00;52.78;99174.06;31374601;28;20293;-77
2022/12/13 09:25:30;;;;;;;33.83;12.63;;;;;;;13.82;52.54;99116.88;31340836;28;20056;-83
2022/12/13 09:40:39;;;;;;;26.27;9.53;;;;;;;13.83;53.49;99091.09;31338706;28;20060;-86
2022/12/13 09:55:47;;;;;;;26.57;11.43;;;;;;;13.78;53.21;99042.66;31349230;28;20577;-88
2022/12/13 10:11:28;;;;;;;39.80;13.90;;;;;;;13.83;54.01;99001.09;31354809;28;20079;-91
2022/12/13 10:26:37;;;;;;;66.53;20.20;;;;;;;14.05;54.07;98984.38;31382834;28;20494;-73
2022/12/13 10:41:39;;;;;;;49.80;15.60;;;;;;;13.80;54.46;98952.16;31325376;28;20080;-74
2022/12/13 10:56:47;;;;;;;29.60;11.47;;;;;;;13.54;55.16;98941.00;31328184;28;20056;-74
2022/12/13 11:11:52;;;;;;;27.50;9.90;;;;;;;13.53;55.78;98939.50;31303421;28;20084;-74
2022/12/13 11:27:19;;;;;;;29.63;11.07;;;;;;;13.43;55.99;98935.34;31322303;28;20061;-73
2022/12/13 11:42:34;;;;;;;22.50;9.57;;;;;;;13.57;55.34;98907.38;31319361;28;20107;-74
2022/12/13 11:57:43;;;;;;;28.27;9.70;;;;;;;13.21;56.19;98871.00;31307809;28;20102;-75
2022/12/13 12:12:52;;;;;;;27.30;9.90;;;;;;;13.07;56.03;98843.66;31337528;28;20479;-76
2022/12/13 12:28:21;;;;;;;18.17;7.73;;;;;;;13.06;56.04;98832.00;31354651;28;20046;-74
2022/12/13 12:44:10;;;;;;;15.17;6.67;;;;;;;12.94;54.99;98811.22;31340658;28;20055;-72
2022/12/13 12:59:24;;;;;;;18.90;7.37;;;;;;;12.55;55.00;98827.50;31334034;28;20045;-74
2022/12/13 13:14:52;;;;;;;101.43;38.83;;;;;;;12.45;54.34;98828.78;31340483;28;20084;-73
2022/12/13 13:30:20;;;;;;;19.03;7.23;;;;;;;12.19;54.21;98805.91;31361661;28;20103;-75
2022/12/13 13:45:25;;;;;;;17.33;8.10;;;;;;;12.27;53.86;98823.41;31359433;28;20056;-76
2022/12/13 14:01:08;;;;;;;13.67;6.43;;;;;;;12.12;53.19;98852.47;31341808;28;20054;-74
2022/12/13 14:32:28;;;;;;;8.90;4.97;;;;;;;11.52;53.84;98902.09;31081994;28;20053;-83
2022/12/13 14:47:32;;;;;;;10.30;5.53;;;;;;;11.20;54.69;98904.19;31131253;28;20050;-73
2022/12/13 15:02:34;;;;;;;6.43;4.20;;;;;;;11.01;54.01;98913.50;31085108;28;20418;-72
2022/12/13 15:17:44;;;;;;;7.30;4.43;;;;;;;10.95;52.94;98937.03;31087116;28;20054;-73
2022/12/13 15:49:37;;;;;;;9.97;4.13;;;;;;;11.08;53.70;98993.94;31348835;28;20056;-78
2022/12/13 16:21:30;;;;;;;10.20;5.17;;;;;;;10.70;53.70;99037.66;31390780;22;20076;-91
2022/12/13 16:52:38;;;;;;;17.40;7.00;;;;;;;10.89;53.62;99090.84;21936545;23;20141;-84
2022/12/13 17:07:40;;;;;;;8.23;4.60;;;;;;;10.67;53.62;99111.84;31143086;28;20141;-80
2022/12/13 17:22:44;;;;;;;11.90;6.00;;;;;;;10.44;53.92;99134.72;31212742;28;20108;-91
2022/12/13 17:38:09;;;;;;;15.47;7.57;;;;;;;10.43;53.92;99168.50;31185187;28;20046;-87
2022/12/13 17:53:22;;;;;;;11.40;5.77;;;;;;;10.57;53.30;99195.16;31220825;28;20053;-91
2022/12/13 18:08:26;;;;;;;9.90;5.70;;;;;;;10.27;53.46;99220.94;31186783;28;20062;-83
2022/12/13 18:23:28;;;;;;;17.27;6.73;;;;;;;10.12;52.14;99241.56;31136855;28;20058;-82
2022/12/13 18:38:31;;;;;;;14.03;5.90;;;;;;;9.73;51.05;99262.47;31170067;28;20033;-84
2022/12/13 18:53:39;;;;;;;17.30;6.77;;;;;;;9.71;50.72;99305.50;31229344;28;20184;-84
2022/12/13 19:08:41;;;;;;;13.10;6.13;;;;;;;9.36;49.01;99334.38;31143019;28;20058;-81
2022/12/13 19:23:43;;;;;;;9.33;4.20;;;;;;;9.28;49.56;99360.09;31142987;28;20058;-86
2022/12/13 19:38:54;;;;;;;15.03;6.10;;;;;;;9.49;50.13;99386.63;31124614;28;20057;-86
2022/12/13 19:53:57;;;;;;;12.13;6.33;;;;;;;9.27;50.98;99428.25;31151417;28;20503;-89
2022/12/13 20:09:00;;;;;;;17.73;8.43;;;;;;;9.01;49.84;99455.16;31161228;28;20058;-87
2022/12/13 20:24:03;;;;;;;11.33;6.70;;;;;;;9.19;50.65;99477.19;31115679;28;20057;-85
2022/12/13 20:39:05;;;;;;;15.93;8.07;;;;;;;9.21;50.06;99495.72;31163474;28;20057;-84
2022/12/13 20:54:08;;;;;;;18.33;8.30;;;;;;;9.03;50.28;99533.25;31224320;28;20482;-83
2022/12/13 21:09:10;;;;;;;22.37;8.73;;;;;;;9.20;49.73;99532.09;31069901;28;20500;-89
2022/12/13 21:24:14;;;;;;;24.57;10.50;;;;;;;9.44;49.86;99557.09;31098814;28;20563;-82
2022/12/13 21:39:21;;;;;;;20.43;9.40;;;;;;;9.30;48.46;99584.50;31204447;28;20149;-85
2022/12/13 21:54:23;;;;;;;18.00;8.63;;;;;;;9.24;47.96;99614.78;31166857;28;20050;-87
2022/12/13 22:09:25;;;;;;;20.93;10.83;;;;;;;9.37;47.97;99643.94;31123825;28;20140;-81
2022/12/13 22:24:28;;;;;;;12.93;6.47;;;;;;;9.26;47.23;99675.88;31107749;28;20051;-84
2022/12/13 22:39:30;;;;;;;16.60;7.90;;;;;;;9.47;47.07;99702.53;31145612;28;20038;-86
2022/12/13 22:54:32;;;;;;;20.87;9.57;;;;;;;9.29;47.96;99730.00;31183038;28;20034;-86
2022/12/13 23:09:37;;;;;;;19.13;9.50;;;;;;;9.19;47.33;99758.84;31178607;28;20048;-86
2022/12/13 23:24:41;;;;;;;24.23;9.97;;;;;;;8.60;47.83;99785.81;31282456;28;20125;-85
2022/12/13 23:39:45;;;;;;;16.93;10.43;;;;;;;8.80;46.83;99815.63;31219980;28;20122;-86
2022/12/13 23:54:47;;;;;;;24.97;11.90;;;;;;;8.61;46.17;99854.22;31157224;28;20057;-81
